Time;durP1;ratioP1;P1;durP2;ratioP2;P2;SDS_P1;SDS_P2;PMS_P1;PMS_P2;Temp;Humidity;BMP_temperature;BMP_pressure;BME280_temperature;BME280_humidity;BME280_pressure;Samples;Min_cycle;Max_cycle;Signal;HPM_P1;HPM_P2
2022/06/06 00:00:35;;;;;;;7.20;3.47;;;;;;;17.01;100.00;96422.41;4974218;28;20203;-71
2022/06/06 00:03:01;;;;;;;9.43;3.38;;;;;;;17.11;100.00;96405.75;4973618;28;20207;-70
2022/06/06 00:05:28;;;;;;;9.07;3.15;;;;;;;17.11;100.00;96410.28;4974091;28;20630;-72
2022/06/06 00:07:54;;;;;;;10.10;3.60;;;;;;;17.09;100.00;96405.16;4974628;28;20231;-71
2022/06/06 00:10:21;;;;;;;7.30;3.47;;;;;;;17.04;100.00;96398.03;4974454;28;20214;-71
2022/06/06 00:12:49;;;;;;;6.60;3.38;;;;;;;17.20;100.00;96399.16;4973389;28;20598;-71
2022/06/06 00:15:16;;;;;;;8.70;3.20;;;;;;;17.10;100.00;96403.31;4974575;28;20210;-71
2022/06/06 00:17:43;;;;;;;6.60;3.17;;;;;;;17.05;100.00;96399.66;4973951;28;20238;-71
2022/06/06 00:20:11;;;;;;;5.55;3.22;;;;;;;16.92;100.00;96400.53;4973757;28;20204;-71
2022/06/06 00:22:37;;;;;;;4.70;3.28;;;;;;;16.85;100.00;96397.09;4973398;28;20204;-71
2022/06/06 00:25:04;;;;;;;4.80;3.33;;;;;;;16.95;100.00;96396.63;4974469;28;20211;-71
2022/06/06 00:27:31;;;;;;;7.43;3.20;;;;;;;16.89;100.00;96400.13;4974057;28;20227;-71
2022/06/06 00:29:59;;;;;;;6.78;3.28;;;;;;;17.04;100.00;96395.34;4974229;28;20211;-71
2022/06/06 00:35:10;;;;;;;7.18;3.22;;;;;;;16.92;100.00;96389.06;4973872;28;20242;-71
2022/06/06 00:37:38;;;;;;;6.75;3.30;;;;;;;16.87;100.00;96396.88;4974177;28;20581;-71
2022/06/06 00:40:09;;;;;;;6.40;3.17;;;;;;;16.89;100.00;96394.81;4973931;28;20207;-71
2022/06/06 00:42:39;;;;;;;6.22;3.13;;;;;;;16.89;100.00;96385.00;4973155;28;20207;-71
2022/06/06 00:45:27;;;;;;;5.97;3.42;;;;;;;17.02;100.00;96378.75;4973832;28;20299;-71
2022/06/06 00:47:58;;;;;;;7.28;3.70;;;;;;;16.77;100.00;96380.53;4973804;28;20685;-71
2022/06/06 00:50:33;;;;;;;8.70;2.95;;;;;;;16.84;100.00;96382.16;4973382;28;20238;-71
2022/06/06 00:53:00;;;;;;;9.90;3.40;;;;;;;16.74;100.00;96379.13;4970155;28;20587;-71
2022/06/06 00:55:32;;;;;;;6.40;3.25;;;;;;;16.76;100.00;96377.06;4973799;28;20564;-71
2022/06/06 00:58:02;;;;;;;5.55;3.22;;;;;;;16.76;100.00;96373.56;4973264;28;20223;-71
2022/06/06 01:00:31;;;;;;;7.13;3.38;;;;;;;16.70;100.00;96367.25;4974034;28;20203;-70
2022/06/06 01:03:01;;;;;;;9.07;3.17;;;;;;;16.60;100.00;96368.75;4972991;28;20208;-70
2022/06/06 01:05:28;;;;;;;8.82;3.78;;;;;;;16.37;100.00;96362.25;4973640;28;20207;-71
2022/06/06 01:07:55;;;;;;;6.32;3.55;;;;;;;16.49;100.00;96367.53;4975598;28;20726;-71
2022/06/06 01:10:22;;;;;;;6.82;3.60;;;;;;;16.60;100.00;96368.75;4977273;28;20214;-71
2022/06/06 01:12:51;;;;;;;6.38;3.70;;;;;;;16.68;100.00;96357.84;4976507;28;20203;-71
2022/06/06 01:15:20;;;;;;;7.75;3.75;;;;;;;16.68;100.00;96350.69;4977101;28;20203;-71
2022/06/06 01:17:57;;;;;;;7.47;3.97;;;;;;;16.66;100.00;96357.25;4977220;28;20615;-71
2022/06/06 01:20:48;;;;;;;8.52;4.43;;;;;;;16.68;100.00;96347.22;4976375;28;20600;-71
2022/06/06 01:23:40;;;;;;;11.07;4.38;;;;;;;16.68;100.00;96347.22;4976356;28;20210;-70
2022/06/06 01:26:26;;;;;;;8.07;4.47;;;;;;;16.58;100.00;96346.84;4977416;28;20675;-71
2022/06/06 01:29:00;;;;;;;6.72;3.95;;;;;;;16.53;100.00;96346.66;4976545;28;20733;-71
2022/06/06 01:31:33;;;;;;;9.73;4.13;;;;;;;16.56;100.00;96351.56;4976265;28;20454;-71
2022/06/06 01:34:03;;;;;;;8.57;4.43;;;;;;;16.53;100.00;96342.16;4976223;28;20219;-71
2022/06/06 01:36:31;;;;;;;9.98;5.00;;;;;;;16.48;100.00;96346.47;4976830;28;20222;-71
2022/06/06 01:39:00;;;;;;;16.00;5.40;;;;;;;16.46;100.00;96350.34;4976162;28;20368;-70
2022/06/06 01:41:36;;;;;;;9.55;4.90;;;;;;;16.58;100.00;96346.84;4976128;28;20578;-70
2022/06/06 01:44:10;;;;;;;7.80;4.85;;;;;;;16.62;100.00;96356.03;4976035;28;20391;-71
2022/06/06 01:46:38;;;;;;;9.35;4.32;;;;;;;16.31;100.00;96353.28;4976013;28;20348;-71
2022/06/06 01:49:07;;;;;;;8.13;4.88;;;;;;;16.49;100.00;96364.06;4976444;28;20211;-71
2022/06/06 01:51:34;;;;;;;9.07;4.78;;;;;;;16.22;100.00;96370.47;4976852;28;20203;-71
2022/06/06 01:54:00;;;;;;;9.70;4.38;;;;;;;16.15;100.00;96368.84;4973603;28;20199;-71
2022/06/06 01:56:30;;;;;;;12.43;5.45;;;;;;;16.27;100.00;96372.53;4976145;28;20238;-70
2022/06/06 01:58:57;;;;;;;10.43;5.43;;;;;;;16.32;100.00;96372.69;4976128;28;20582;-70
2022/06/06 02:01:26;;;;;;;10.05;5.43;;;;;;;16.39;100.00;96371.66;4976062;28;20200;-71
2022/06/06 02:03:53;;;;;;;11.93;5.18;;;;;;;16.36;100.00;96374.75;4975495;28;20625;-71
2022/06/06 02:06:19;;;;;;;8.95;4.97;;;;;;;16.28;100.00;96377.63;4976139;28;20199;-71
2022/06/06 02:08:47;;;;;;;15.35;5.28;;;;;;;16.27;100.00;96375.19;4975964;28;20230;-72
2022/06/06 02:11:13;;;;;;;8.65;4.53;;;;;;;16.27;100.00;96378.66;4976360;28;20861;-71
2022/06/06 02:13:40;;;;;;;8.07;4.47;;;;;;;16.29;100.00;96386.44;4975234;28;20215;-70
2022/06/06 02:16:07;;;;;;;13.23;4.93;;;;;;;16.30;100.00;96377.44;4975792;28;20470;-70
2022/06/06 02:18:36;;;;;;;8.18;4.65;;;;;;;16.20;100.00;96382.31;4975506;28;20200;-71
2022/06/06 02:21:03;;;;;;;9.27;5.05;;;;;;;16.20;100.00;96384.97;4976357;28;20670;-71
2022/06/06 02:23:30;;;;;;;8.80;4.20;;;;;;;16.27;100.00;96377.84;4974599;28;20203;-70
2022/06/06 02:25:57;;;;;;;9.50;4.55;;;;;;;16.17;100.00;96378.22;4976200;28;20218;-71
2022/06/06 02:28:23;;;;;;;9.50;4.80;;;;;;;16.20;100.00;96387.63;4973112;28;20235;-72
2022/06/06 02:30:50;;;;;;;10.63;4.90;;;;;;;16.09;100.00;96394.41;4975524;28;20218;-71
2022/06/06 02:33:17;;;;;;;8.20;4.18;;;;;;;16.03;100.00;96397.09;4975188;28;20742;-70
2022/06/06 02:35:45;;;;;;;10.35;5.20;;;;;;;16.01;100.00;96391.16;4976648;28;20260;-71
2022/06/06 02:38:13;;;;;;;10.15;4.88;;;;;;;15.98;100.00;96395.03;4975467;28;20228;-70
2022/06/06 02:40:41;;;;;;;9.23;4.90;;;;;;;15.72;100.00;96396.06;4974993;28;20430;-70
2022/06/06 02:43:07;;;;;;;8.98;4.95;;;;;;;15.72;100.00;96388.09;4974874;28;20207;-71
2022/06/06 02:45:34;;;;;;;12.77;4.95;;;;;;;15.79;100.00;96392.38;4976401;28;20204;-71
2022/06/06 02:48:00;;;;;;;7.15;4.05;;;;;;;15.72;100.00;96394.25;4975219;28;20231;-71
2022/06/06 02:50:29;;;;;;;9.80;4.80;;;;;;;15.75;100.00;96387.72;4975200;28;20694;-70
2022/06/06 02:52:58;;;;;;;7.57;4.28;;;;;;;15.68;100.00;96387.72;4975378;28;20207;-70
2022/06/06 02:55:25;;;;;;;8.95;4.72;;;;;;;15.60;100.00;96389.75;4975641;28;20199;-71
2022/06/06 02:57:52;;;;;;;8.32;4.75;;;;;;;15.69;100.00;96391.16;4975302;28;20223;-71
2022/06/06 03:00:22;;;;;;;7.43;4.82;;;;;;;15.63;100.00;96394.63;4975358;28;20206;-70
2022/06/06 03:02:48;;;;;;;8.88;4.38;;;;;;;15.60;100.00;96398.50;4974106;28;20218;-70
2022/06/06 03:05:16;;;;;;;8.02;4.50;;;;;;;15.46;100.00;96404.84;4975318;28;20676;-71
2022/06/06 03:07:57;;;;;;;7.53;3.65;;;;;;;15.57;100.00;96400.78;4975648;28;20326;-70
2022/06/06 03:10:42;;;;;;;8.27;3.88;;;;;;;15.62;100.00;96399.13;4975765;28;20746;-71
2022/06/06 03:13:25;;;;;;;9.88;4.75;;;;;;;15.73;100.00;96403.81;4974611;28;20687;-71
2022/06/06 03:22:03;;;;;;;9.02;4.82;;;;;;;15.74;100.00;96409.97;4975683;28;21151;-70
2022/06/06 03:24:46;;;;;;;9.48;4.95;;;;;;;15.76;100.00;96405.25;4975138;28;20214;-70
2022/06/06 03:27:23;;;;;;;9.05;4.40;;;;;;;15.81;100.00;96405.47;4975250;28;20223;-70
2022/06/06 03:30:01;;;;;;;8.77;4.00;;;;;;;15.67;100.00;96406.47;4974582;28;20237;-70
2022/06/06 03:32:45;;;;;;;11.07;4.40;;;;;;;15.73;100.00;96397.72;4974948;28;20318;-71
2022/06/06 03:35:20;;;;;;;9.48;4.78;;;;;;;15.68;100.00;96393.03;4975225;28;20214;-70
2022/06/06 03:37:54;;;;;;;6.82;4.55;;;;;;;15.76;100.00;96389.31;4975848;28;20223;-70
2022/06/06 03:40:27;;;;;;;10.93;5.45;;;;;;;15.76;100.00;96392.81;4975453;28;20207;-70
2022/06/06 03:43:03;;;;;;;12.70;5.72;;;;;;;15.80;100.00;96394.03;4974719;28;20207;-71
2022/06/06 03:45:39;;;;;;;13.65;5.80;;;;;;;15.95;100.00;96378.69;4975267;28;20199;-71
2022/06/06 03:48:20;;;;;;;11.65;6.40;;;;;;;15.89;100.00;96384.81;4976318;28;20698;-71
2022/06/06 03:50:54;;;;;;;12.40;5.82;;;;;;;15.89;100.00;96401.56;4974843;28;20238;-71
2022/06/06 03:53:28;;;;;;;13.48;5.82;;;;;;;15.88;100.00;96405.28;4974078;28;20206;-71
2022/06/06 03:56:09;;;;;;;10.95;5.20;;;;;;;15.89;100.00;96411.41;4974589;28;20203;-70
2022/06/06 03:58:38;;;;;;;13.27;5.10;;;;;;;15.80;100.00;96411.81;4974412;28;20374;-71
2022/06/06 04:01:08;;;;;;;8.05;3.95;;;;;;;15.75;100.00;96416.94;4974075;28;20699;-71
2022/06/06 04:03:37;;;;;;;6.88;3.33;;;;;;;15.64;100.00;96423.66;4973730;28;20203;-71
2022/06/06 04:06:05;;;;;;;5.95;3.33;;;;;;;15.54;100.00;96417.09;4973602;28;20260;-71
2022/06/06 04:08:32;;;;;;;5.90;3.90;;;;;;;15.82;100.00;96415.09;4974289;28;20462;-70
2022/06/06 04:11:08;;;;;;;8.93;3.63;;;;;;;16.01;100.00;96415.91;4974334;28;20261;-70
2022/06/06 04:13:44;;;;;;;8.15;3.63;;;;;;;16.10;100.00;96414.66;4973512;28;20207;-71
2022/06/06 04:16:33;;;;;;;9.98;4.00;;;;;;;16.19;100.00;96418.75;4973877;28;20210;-72
2022/06/06 04:19:13;;;;;;;8.10;3.47;;;;;;;16.29;100.00;96419.13;4974911;28;20221;-71
2022/06/06 04:21:49;;;;;;;11.32;4.20;;;;;;;16.26;100.00;96424.88;4974265;28;20199;-71
2022/06/06 04:24:32;;;;;;;7.32;3.60;;;;;;;16.32;100.00;96415.25;4973045;28;20293;-71
2022/06/06 04:27:06;;;;;;;8.88;4.57;;;;;;;16.45;100.00;96413.41;4974299;28;20858;-70
2022/06/06 04:29:43;;;;;;;8.23;4.72;;;;;;;16.40;100.00;96423.03;4974009;28;20230;-71
2022/06/06 04:32:15;;;;;;;11.80;3.95;;;;;;;16.57;100.00;96407.22;4973795;28;20202;-71
2022/06/06 04:34:49;;;;;;;9.23;4.88;;;;;;;16.61;100.00;96412.94;4974132;28;20473;-70
2022/06/06 04:37:22;;;;;;;16.05;4.65;;;;;;;16.63;100.00;96408.22;4973972;28;21006;-71
2022/06/06 04:39:55;;;;;;;11.52;5.20;;;;;;;16.60;100.00;96411.31;4974015;28;20214;-71
2022/06/06 04:42:36;;;;;;;10.95;4.90;;;;;;;16.78;100.00;96412.25;4976247;28;20206;-71
2022/06/06 04:45:16;;;;;;;11.40;5.25;;;;;;;16.89;100.00;96405.44;4977752;28;20214;-70
2022/06/06 04:47:43;;;;;;;7.20;4.55;;;;;;;16.83;100.00;96414.31;4977129;28;20230;-70
2022/06/06 04:50:13;;;;;;;8.68;4.45;;;;;;;17.09;100.00;96409.66;4977769;28;20203;-71
2022/06/06 04:52:42;;;;;;;10.50;4.05;;;;;;;17.03;100.00;96415.84;4976418;28;20199;-72
2022/06/06 04:55:11;;;;;;;5.97;4.15;;;;;;;17.08;100.00;96416.84;4977098;28;20208;-71
2022/06/06 04:57:43;;;;;;;8.55;4.90;;;;;;;17.25;100.00;96422.53;4977812;28;20233;-71
2022/06/06 05:00:11;;;;;;;10.23;4.75;;;;;;;17.11;100.00;96427.06;4977114;28;20202;-71
2022/06/06 05:02:38;;;;;;;8.40;4.35;;;;;;;17.08;100.00;96427.50;4976072;28;20199;-71
2022/06/06 05:05:06;;;;;;;13.38;4.68;;;;;;;17.24;100.00;96436.84;4977195;28;20211;-71
2022/06/06 05:07:53;;;;;;;7.63;4.38;;;;;;;17.47;100.00;96437.16;4977704;28;20288;-71
2022/06/06 05:10:32;;;;;;;8.00;4.20;;;;;;;17.36;100.00;96443.97;4976745;28;20210;-71
2022/06/06 05:13:23;;;;;;;8.55;3.97;;;;;;;17.52;100.00;96446.13;4976333;28;20276;-71
2022/06/06 05:16:12;;;;;;;9.00;4.15;;;;;;;17.45;100.00;96444.53;4974636;28;20222;-71
2022/06/06 05:18:59;;;;;;;9.88;4.05;;;;;;;17.61;100.00;96433.38;4977155;28;20204;-71
2022/06/06 05:21:45;;;;;;;8.43;3.83;;;;;;;17.74;100.00;96442.06;4977075;28;20200;-71
2022/06/06 05:24:29;;;;;;;6.07;4.25;;;;;;;17.87;100.00;96436.66;4976235;28;20580;-71
2022/06/06 05:27:06;;;;;;;6.18;3.47;;;;;;;17.69;100.00;96446.44;4976571;28;20227;-71
2022/06/06 05:30:03;;;;;;;8.80;3.97;;;;;;;17.89;100.00;96442.59;4976818;28;20682;-71
2022/06/06 05:32:53;;;;;;;7.20;4.00;;;;;;;18.18;100.00;96444.66;4960190;28;20199;-71
2022/06/06 05:35:33;;;;;;;5.20;3.75;;;;;;;18.04;100.00;96445.75;4976373;28;20506;-71
2022/06/06 05:38:13;;;;;;;7.20;3.70;;;;;;;18.22;100.00;96449.31;4976828;28;20596;-71
2022/06/06 05:40:43;;;;;;;7.28;3.97;;;;;;;18.00;100.00;96452.56;4976709;28;20203;-71
2022/06/06 05:43:26;;;;;;;6.85;4.15;;;;;;;18.24;100.00;96449.94;4976244;28;20651;-71
2022/06/06 05:46:07;;;;;;;9.07;4.05;;;;;;;18.25;100.00;96456.06;4977082;28;20207;-70
2022/06/06 05:48:52;;;;;;;7.00;4.38;;;;;;;18.33;100.00;96455.78;4977011;28;20333;-70
2022/06/06 05:51:30;;;;;;;8.40;3.70;;;;;;;18.45;100.00;96458.31;4977151;28;20210;-71
2022/06/06 05:54:18;;;;;;;7.85;3.78;;;;;;;18.80;100.00;96459.41;4975618;28;20207;-70
2022/06/06 05:57:05;;;;;;;6.00;3.85;;;;;;;18.90;100.00;96465.03;4977153;28;20219;-71
2022/06/06 05:59:51;;;;;;;6.35;3.65;;;;;;;19.18;100.00;96458.19;4976777;28;20200;-71
2022/06/06 06:02:47;;;;;;;10.50;3.30;;;;;;;19.24;99.58;96461.78;4976083;28;21132;-69
2022/06/06 06:05:19;;;;;;;8.57;3.85;;;;;;;19.14;99.50;96459.66;4974294;28;20207;-70
2022/06/06 06:08:00;;;;;;;5.47;3.30;;;;;;;19.13;97.79;96460.69;4977111;28;20234;-70
2022/06/06 06:10:34;;;;;;;6.80;3.40;;;;;;;19.08;99.62;96451.69;4976567;28;20199;-70
2022/06/06 06:13:23;;;;;;;5.28;3.40;;;;;;;19.12;100.00;96459.06;4975570;28;20761;-70
2022/06/06 06:15:52;;;;;;;5.20;3.17;;;;;;;19.09;98.10;96461.34;4977119;28;20219;-70
2022/06/06 06:18:25;;;;;;;5.80;3.15;;;;;;;19.23;99.28;96446.78;4976557;28;20280;-71
2022/06/06 06:20:59;;;;;;;7.97;3.42;;;;;;;19.43;98.52;96455.38;4976585;28;20207;-71
2022/06/06 06:23:30;;;;;;;28.52;3.90;;;;;;;19.47;96.80;96452.00;4976022;28;20229;-70
2022/06/06 06:26:00;;;;;;;4.78;3.40;;;;;;;19.54;97.38;96452.75;4976835;28;20215;-71
2022/06/06 06:28:28;;;;;;;4.63;3.15;;;;;;;19.65;97.96;96460.00;4976079;28;20238;-71
2022/06/06 06:31:05;;;;;;;4.88;3.28;;;;;;;19.45;94.45;96463.97;4976525;28;20207;-72
2022/06/06 06:33:44;;;;;;;4.93;3.20;;;;;;;19.15;94.97;96474.63;4975788;28;20203;-70
2022/06/06 06:36:27;;;;;;;4.60;3.38;;;;;;;19.35;97.14;96469.06;4976407;28;20206;-71
2022/06/06 06:39:07;;;;;;;7.20;3.63;;;;;;;19.37;97.98;96464.28;4976797;28;20211;-71
2022/06/06 06:41:43;;;;;;;5.93;3.78;;;;;;;19.43;99.22;96463.41;4976523;28;20207;-71
2022/06/06 06:44:11;;;;;;;6.70;3.70;;;;;;;19.48;99.31;96468.88;4975347;28;20679;-71
2022/06/06 06:46:42;;;;;;;7.70;3.92;;;;;;;19.67;97.53;96477.44;4976215;28;21010;-70
2022/06/06 06:49:29;;;;;;;7.20;3.92;;;;;;;19.94;94.48;96478.72;4975818;28;20702;-70
2022/06/06 06:52:09;;;;;;;7.95;3.83;;;;;;;20.11;95.79;96482.38;4976409;28;20218;-71
2022/06/06 06:54:56;;;;;;;7.15;3.63;;;;;;;20.17;93.82;96480.66;4975784;28;20207;-71
2022/06/06 06:57:36;;;;;;;7.25;3.38;;;;;;;20.32;96.81;96481.81;4976016;28;20223;-71
2022/06/06 07:00:10;;;;;;;8.20;3.70;;;;;;;20.35;94.73;96484.03;4975989;28;20214;-71
2022/06/06 07:08:48;;;;;;;6.07;3.45;;;;;;;20.24;92.67;96487.53;4975458;28;20210;-71
2022/06/06 07:11:36;;;;;;;6.35;3.75;;;;;;;20.30;93.66;96487.41;4976439;28;20199;-71
2022/06/06 07:14:10;;;;;;;5.78;3.55;;;;;;;20.24;94.28;96482.16;4974985;28;20212;-71
2022/06/06 07:16:38;;;;;;;5.80;3.90;;;;;;;20.26;90.54;96490.78;4975672;28;20237;-71
2022/06/06 07:19:08;;;;;;;10.80;4.22;;;;;;;20.64;88.92;96491.16;4976218;28;20235;-71
2022/06/06 07:21:36;;;;;;;5.28;3.40;;;;;;;21.03;88.19;96492.09;4975695;28;20200;-72
2022/06/06 07:24:07;;;;;;;5.95;3.60;;;;;;;20.77;86.84;96488.28;4974949;28;20207;-70
2022/06/06 07:26:38;;;;;;;5.47;3.60;;;;;;;20.22;89.56;96490.41;4975932;28;20300;-71
2022/06/06 07:29:06;;;;;;;10.57;3.78;;;;;;;20.06;88.86;96490.28;4975647;28;20231;-72
2022/06/06 07:31:44;;;;;;;6.85;3.67;;;;;;;20.25;90.04;96489.13;4975618;28;20203;-69
2022/06/06 07:34:37;;;;;;;6.10;3.60;;;;;;;20.23;90.52;96493.91;4974769;28;20260;-71
2022/06/06 07:37:13;;;;;;;8.10;3.40;;;;;;;20.34;87.31;96487.75;4975620;28;20227;-69
2022/06/06 07:39:52;;;;;;;5.82;3.47;;;;;;;20.72;87.45;96491.63;4975515;28;20211;-72
2022/06/06 07:42:29;;;;;;;6.03;3.78;;;;;;;20.48;88.80;96492.69;4974427;28;20204;-72
2022/06/06 07:45:09;;;;;;;9.93;4.30;;;;;;;20.50;90.42;96489.75;4975274;28;20207;-69
2022/06/06 07:47:47;;;;;;;9.25;3.60;;;;;;;20.58;89.72;96494.75;4975166;28;21103;-71
2022/06/06 07:50:19;;;;;;;5.97;3.28;;;;;;;20.45;88.06;96493.13;4975210;28;20591;-69
2022/06/06 07:52:55;;;;;;;7.90;3.50;;;;;;;20.43;87.46;96486.34;4974295;28;20403;-71
2022/06/06 07:55:27;;;;;;;4.65;3.20;;;;;;;20.64;87.34;96499.19;4975040;28;20355;-71
2022/06/06 07:58:05;;;;;;;8.02;3.83;;;;;;;20.90;88.36;96492.34;4974755;28;20231;-70
2022/06/06 08:00:32;;;;;;;4.90;3.17;;;;;;;20.95;85.06;96495.16;4975362;28;20215;-71
2022/06/06 08:03:12;;;;;;;7.93;3.50;;;;;;;21.52;86.67;96484.31;4973884;28;20214;-70
2022/06/06 08:06:13;;;;;;;5.25;3.50;;;;;;;21.93;80.01;96485.88;4974800;28;20199;-71
2022/06/06 08:09:08;;;;;;;7.47;3.72;;;;;;;21.67;85.54;96483.81;4974939;28;20199;-71
2022/06/06 08:11:52;;;;;;;6.78;3.65;;;;;;;21.87;84.12;96481.47;4974642;28;20203;-71
2022/06/06 08:14:35;;;;;;;5.40;3.10;;;;;;;21.41;81.65;96483.50;4974689;28;20199;-72
2022/06/06 08:17:15;;;;;;;4.32;3.20;;;;;;;21.66;80.60;96479.47;4974973;28;20230;-70
2022/06/06 08:19:56;;;;;;;6.72;3.00;;;;;;;21.83;80.27;96480.34;4974453;28;20199;-71
2022/06/06 08:22:25;;;;;;;6.05;3.25;;;;;;;22.13;78.15;96474.47;4973779;28;20986;-72
2022/06/06 08:24:55;;;;;;;6.80;2.85;;;;;;;22.35;80.57;96475.41;4975043;28;20207;-71
2022/06/06 08:27:26;;;;;;;4.45;2.95;;;;;;;22.32;80.50;96475.88;4975007;28;20234;-70
2022/06/06 08:29:53;;;;;;;9.75;3.28;;;;;;;22.22;77.64;96480.25;4974196;28;21081;-71
2022/06/06 08:32:21;;;;;;;4.47;3.00;;;;;;;22.11;77.79;96479.25;4974096;28;20210;-70
2022/06/06 08:34:48;;;;;;;6.18;3.00;;;;;;;21.90;80.70;96472.97;4974836;28;20713;-71
2022/06/06 08:37:33;;;;;;;4.75;3.03;;;;;;;21.64;81.42;96465.50;4974372;28;20227;-70
2022/06/06 08:40:14;;;;;;;5.28;2.72;;;;;;;21.41;79.12;96464.72;4974559;28;20203;-71
2022/06/06 08:42:58;;;;;;;5.30;3.00;;;;;;;21.57;79.60;96465.63;4973932;28;20218;-69
2022/06/06 08:45:50;;;;;;;6.88;3.33;;;;;;;21.79;78.29;96468.47;4974204;28;20199;-70
2022/06/06 08:48:38;;;;;;;4.63;3.08;;;;;;;21.66;78.04;96466.06;4971749;28;20786;-70
2022/06/06 08:51:23;;;;;;;7.47;3.30;;;;;;;21.95;78.75;96456.97;4963901;28;21204;-70
2022/06/06 08:54:22;;;;;;;5.82;3.10;;;;;;;22.24;78.41;96452.09;4973276;28;20207;-71
2022/06/06 08:57:10;;;;;;;3.47;2.55;;;;;;;21.53;77.36;96455.63;4974378;28;20234;-72
2022/06/06 09:00:20;;;;;;;5.18;2.90;;;;;;;22.09;79.72;96456.41;4974105;28;20210;-71
2022/06/06 09:03:28;;;;;;;5.03;3.10;;;;;;;22.27;78.44;96451.63;4973551;28;20666;-72
2022/06/06 09:06:36;;;;;;;7.40;3.35;;;;;;;22.97;78.52;96452.69;4973876;28;20873;-71
2022/06/06 09:09:48;;;;;;;4.15;2.80;;;;;;;22.83;73.78;96446.84;4973498;28;20236;-70
2022/06/06 09:12:57;;;;;;;3.95;2.90;;;;;;;23.54;74.29;96436.78;4973131;28;20859;-71
2022/06/06 09:15:57;;;;;;;10.05;5.45;;;;;;;24.09;74.24;96443.56;4974043;28;20203;-72
2022/06/06 09:18:58;;;;;;;6.15;3.17;;;;;;;23.33;72.58;96444.84;4973946;28;20230;-71
2022/06/06 09:21:56;;;;;;;5.65;3.45;;;;;;;23.51;72.06;96439.97;4974302;28;20203;-71
2022/06/06 09:24:52;;;;;;;6.85;3.85;;;;;;;23.56;72.56;96431.97;4972801;28;20203;-71
2022/06/06 09:27:51;;;;;;;4.88;2.88;;;;;;;23.65;73.29;96430.44;4974003;28;20230;-70
2022/06/06 09:30:34;;;;;;;4.10;2.75;;;;;;;23.98;71.04;96432.94;4954113;28;20227;-71
2022/06/06 09:33:46;;;;;;;2.78;2.35;;;;;;;24.07;64.64;96426.03;4975808;28;20229;-71
2022/06/06 09:36:23;;;;;;;6.95;2.50;;;;;;;24.27;68.41;96428.91;4949597;28;20218;-70
2022/06/06 09:39:07;;;;;;;3.97;2.45;;;;;;;24.72;64.03;96417.41;4977784;28;20249;-71
2022/06/06 09:41:40;;;;;;;4.97;2.05;;;;;;;24.89;64.41;96419.94;4976680;28;20663;-71
2022/06/06 09:44:23;;;;;;;5.60;2.58;;;;;;;24.86;63.96;96417.75;4976978;28;20218;-71
2022/06/06 09:47:15;;;;;;;4.20;1.92;;;;;;;24.01;61.35;96424.38;4976568;28;20259;-72
2022/06/06 09:50:21;;;;;;;3.17;2.10;;;;;;;24.13;59.87;96414.25;4943917;28;20227;-71
2022/06/06 09:53:34;;;;;;;4.00;2.28;;;;;;;24.30;63.84;96412.22;4976375;28;20234;-72
2022/06/06 09:59:49;;;;;;;2.97;1.98;;;;;;;24.07;63.55;96416.09;4919829;28;20679;-71
2022/06/06 10:02:53;;;;;;;6.32;2.50;;;;;;;23.84;63.81;96412.91;4916003;28;20210;-72
2022/06/06 10:05:58;;;;;;;4.97;2.35;;;;;;;23.85;66.63;96414.53;4976928;28;20211;-71
2022/06/06 10:09:15;;;;;;;4.43;2.40;;;;;;;23.62;63.49;96409.41;4929126;28;20658;-70
2022/06/06 10:12:22;;;;;;;2.63;2.15;;;;;;;23.40;66.50;96407.84;4976413;28;20203;-71
2022/06/06 10:15:13;;;;;;;4.00;2.08;;;;;;;23.41;65.66;96414.84;4976565;28;20218;-70
2022/06/06 10:18:06;;;;;;;4.28;2.22;;;;;;;23.38;63.32;96410.78;4976385;28;20235;-71
2022/06/06 10:20:47;;;;;;;2.45;1.90;;;;;;;24.05;65.08;96410.13;4979581;28;20210;-71
2022/06/06 10:23:32;;;;;;;3.22;2.10;;;;;;;24.11;64.64;96401.03;4975762;28;20568;-70
2022/06/06 10:26:29;;;;;;;3.78;2.10;;;;;;;24.33;63.66;96407.13;4976376;28;20204;-73
2022/06/06 10:29:28;;;;;;;6.03;2.10;;;;;;;23.60;65.07;96413.41;4976031;28;20207;-72
2022/06/06 10:32:11;;;;;;;4.90;2.28;;;;;;;23.19;66.28;96403.25;4976331;28;20664;-72
2022/06/06 10:34:56;;;;;;;5.75;2.65;;;;;;;23.08;67.69;96416.88;4976217;28;20648;-69
2022/06/06 10:37:46;;;;;;;4.10;2.60;;;;;;;22.85;66.65;96409.00;4975820;28;20234;-71
2022/06/06 10:40:32;;;;;;;5.90;2.35;;;;;;;22.72;67.17;96406.66;4964489;28;20203;-71
2022/06/06 10:43:22;;;;;;;3.53;2.45;;;;;;;22.84;65.03;96399.31;4975148;28;20797;-71
2022/06/06 10:45:54;;;;;;;5.60;2.38;;;;;;;22.55;65.94;96400.50;4975425;28;21115;-71
2022/06/06 10:48:36;;;;;;;7.45;2.53;;;;;;;23.16;68.65;96386.84;4976773;28;20223;-70
2022/06/06 10:51:43;;;;;;;2.92;2.15;;;;;;;22.81;66.17;96383.66;4975841;28;20234;-71
2022/06/06 10:54:46;;;;;;;4.07;2.35;;;;;;;23.00;65.32;96383.16;4974956;28;20213;-70
2022/06/06 10:57:48;;;;;;;3.40;2.25;;;;;;;22.98;66.64;96385.25;4976405;28;20218;-70
2022/06/06 11:00:23;;;;;;;3.85;2.55;;;;;;;22.97;67.79;96393.56;4971654;28;21223;-70
2022/06/06 11:03:35;;;;;;;4.20;2.50;;;;;;;23.21;67.30;96381.53;4975490;28;20210;-72
2022/06/06 11:06:24;;;;;;;4.63;2.25;;;;;;;22.97;66.29;96388.19;4918460;28;20209;-71
2022/06/06 11:09:08;;;;;;;2.70;2.00;;;;;;;22.97;63.03;96394.34;4915998;28;20209;-71
2022/06/06 11:12:12;;;;;;;2.50;2.00;;;;;;;24.11;62.34;96392.16;4963379;28;20226;-72
2022/06/06 11:14:40;;;;;;;6.43;2.08;;;;;;;23.87;60.33;96385.47;4974847;28;20203;-72
2022/06/06 11:17:44;;;;;;;4.50;2.10;;;;;;;24.23;60.63;96366.66;4975168;28;20235;-72
2022/06/06 11:20:43;;;;;;;3.63;2.10;;;;;;;24.57;59.65;96368.81;4975780;28;20664;-71
2022/06/06 11:23:18;;;;;;;2.85;1.90;;;;;;;24.12;60.47;96372.22;4974695;28;20207;-71
2022/06/06 11:25:58;;;;;;;5.05;2.03;;;;;;;24.54;56.71;96365.81;4975371;28;20257;-72
2022/06/06 11:28:41;;;;;;;3.00;2.13;;;;;;;24.77;54.09;96365.41;4975628;28;20219;-71
2022/06/06 11:31:36;;;;;;;5.20;1.83;;;;;;;24.92;53.67;96363.59;4977114;28;20235;-71
2022/06/06 11:34:37;;;;;;;2.85;1.80;;;;;;;24.83;54.00;96359.78;4977472;28;20628;-70
2022/06/06 11:37:38;;;;;;;2.40;1.83;;;;;;;25.23;54.95;96358.09;4978563;28;20736;-71
2022/06/06 11:40:35;;;;;;;1.90;1.70;;;;;;;24.61;52.73;96355.63;4975132;28;20214;-70
2022/06/06 11:43:25;;;;;;;1.27;1.17;;;;;;;24.46;52.97;96352.03;4977996;28;20843;-71
2022/06/06 11:46:17;;;;;;;2.35;1.80;;;;;;;24.55;55.47;96345.88;4975562;28;20208;-69
2022/06/06 11:49:14;;;;;;;2.22;1.88;;;;;;;24.82;54.89;96344.69;4975213;28;20284;-70
2022/06/06 11:52:10;;;;;;;3.55;1.73;;;;;;;25.53;53.49;96343.88;4950004;28;20238;-71
2022/06/06 11:55:12;;;;;;;2.22;1.90;;;;;;;25.42;51.74;96342.22;4974125;28;20203;-71
2022/06/06 11:58:04;;;;;;;2.60;1.77;;;;;;;26.02;55.33;96343.97;4975230;28;20227;-70
2022/06/06 12:00:45;;;;;;;3.85;1.50;;;;;;;25.92;50.78;96335.03;4975501;28;20199;-70
2022/06/06 12:03:45;;;;;;;4.30;1.65;;;;;;;26.71;50.10;96326.84;4974664;28;20731;-70
2022/06/06 12:06:51;;;;;;;2.38;1.70;;;;;;;26.42;49.42;96333.13;4974744;28;20208;-71
2022/06/06 12:09:30;;;;;;;4.15;1.67;;;;;;;25.64;51.09;96326.63;4974689;28;20211;-71
2022/06/06 12:12:22;;;;;;;3.20;1.50;;;;;;;26.11;52.26;96331.53;4974495;28;20599;-71
2022/06/06 12:15:20;;;;;;;2.42;1.48;;;;;;;25.57;50.38;96321.50;4975200;28;20203;-70
2022/06/06 12:18:08;;;;;;;2.88;1.80;;;;;;;26.30;51.57;96313.69;4974680;28;20246;-71
2022/06/06 12:20:51;;;;;;;3.30;1.80;;;;;;;26.98;50.45;96302.97;4975061;28;20203;-71
2022/06/06 12:23:23;;;;;;;5.65;1.80;;;;;;;27.25;49.57;96306.91;4974452;28;20207;-71
2022/06/06 12:26:07;;;;;;;3.08;1.63;;;;;;;27.35;53.13;96311.47;4975131;28;20211;-71
2022/06/06 12:29:02;;;;;;;2.65;1.50;;;;;;;26.82;49.39;96306.00;4974624;28;20210;-71
2022/06/06 12:31:47;;;;;;;2.40;1.60;;;;;;;26.20;47.92;96308.28;4974569;28;20249;-71
2022/06/06 12:34:18;;;;;;;2.65;1.55;;;;;;;26.42;50.40;96308.03;4974107;28;20207;-70
2022/06/06 12:36:52;;;;;;;2.00;1.00;;;;;;;25.80;49.13;96306.69;4974722;28;20230;-70
2022/06/06 12:39:29;;;;;;;2.28;1.65;;;;;;;26.07;52.38;96298.03;4974690;28;20206;-70
2022/06/06 12:42:08;;;;;;;1.65;1.48;;;;;;;25.92;50.07;96311.53;4974746;28;20328;-70
2022/06/06 12:44:54;;;;;;;2.10;1.60;;;;;;;25.89;50.32;96295.88;4974310;28;20214;-70